aviador You're here:

CYEK Decoded Metar

ESKIMO POINT in NU, CANADA
Report Time2018-02-17 23:00:00
UTC Time2018-02-17 23:42:20
Flight Rules ifr IFR
Wind330° at 19 kt
W.Decomp.*RWY 33: 19.0 kt HW 1.3 kt RCW
W.Rank330° ranks 1
Current wind is above 330° avg. (14.9)
Visibility1609 m
Phenomena:Light Snow
Clouds:N/A
Expected CloudBase > 2,000 ft AGL from Temp-Dew spread
CeilingNone
Temp-38°C (ISA -53)
Dew Point-43°C (59% RH)
AAT-48.8°C
QNH1008 hPa
Density Alt-6,883 ft
Elevation33 ft
Report Wrong Elevation
Raw Report
CYEK 172300Z AUTO 33019KT 1SM -SN CLR M38/M43 A2977 RMK SLP086=

Extra information for CYEK:More info

Metar Taf Metar & Taf Last 4 Metars F.Rules Stats Wind Profile Meteogram Temp Stats Airport Information Weather charts Add Link Nearby VenuesMetar ALERT Operation Metar Decoded Social comments